Time;durP1;ratioP1;P1;durP2;ratioP2;P2;SDS_P1;SDS_P2;PMS_P1;PMS_P2;Temp;Humidity;BMP_temperature;BMP_pressure;BME280_temperature;BME280_humidity;BME280_pressure;Samples;Min_cycle;Max_cycle;Signal;HPM_P1;HPM_P2
2024/02/06 00:00:40;;;;;;;3.90;3.57;;;19.40;1.00;;;;;;2613171;47;20512;-62
2024/02/06 00:03:05;;;;;;;3.10;2.90;;;19.30;1.00;;;;;;2613479;54;20435;-61
2024/02/06 00:05:31;;;;;;;4.17;3.30;;;19.30;1.00;;;;;;2612522;54;20151;-61
2024/02/06 00:07:57;;;;;;;3.30;3.00;;;19.40;1.00;;;;;;2612862;54;20154;-61
2024/02/06 00:10:22;;;;;;;3.70;3.20;;;19.40;1.00;;;;;;2611941;54;20153;-62
2024/02/06 00:12:48;;;;;;;5.03;3.27;;;19.30;1.00;;;;;;2612857;54;20151;-67
2024/02/06 00:15:14;;;;;;;4.43;3.10;;;19.40;1.00;;;;;;2613546;54;20234;-65
2024/02/06 00:17:39;;;;;;;3.77;3.47;;;19.30;1.00;;;;;;2612952;39;20741;-66
2024/02/06 00:20:07;;;;;;;3.90;3.27;;;19.30;1.00;;;;;;2613514;47;20246;-64
2024/02/06 00:22:32;;;;;;;3.70;3.40;;;19.30;1.00;;;;;;2612745;39;20601;-65
2024/02/06 00:24:58;;;;;;;3.70;3.40;;;19.30;1.00;;;;;;2612849;54;20429;-66
2024/02/06 00:27:24;;;;;;;3.33;3.03;;;19.30;1.00;;;;;;2612455;54;20167;-66
2024/02/06 00:29:54;;;;;;;3.07;2.77;;;19.30;1.00;;;;;;2613537;54;20143;-66
2024/02/06 00:32:21;;;;;;;5.57;3.30;;;19.30;1.00;;;;;;2613411;54;20402;-66
2024/02/06 00:34:49;;;;;;;3.00;2.80;;;19.40;1.00;;;;;;2612588;54;20429;-66
2024/02/06 00:37:18;;;;;;;3.60;3.03;;;19.30;1.00;;;;;;2613774;31;20852;-66
2024/02/06 00:39:44;;;;;;;4.50;3.00;;;19.30;1.00;;;;;;2613572;54;20431;-66
2024/02/06 00:42:10;;;;;;;3.37;2.97;;;19.30;1.00;;;;;;2612643;47;20403;-59
2024/02/06 00:44:38;;;;;;;2.83;2.57;;;19.30;1.00;;;;;;2613404;54;20158;-60
2024/02/06 00:47:04;;;;;;;3.10;2.83;;;19.30;1.00;;;;;;2613515;54;20508;-60
2024/02/06 00:49:30;;;;;;;3.60;3.27;;;19.30;1.00;;;;;;2613178;54;20925;-61
2024/02/06 00:51:55;;;;;;;4.17;3.00;;;19.30;1.00;;;;;;2612955;54;20214;-60
2024/02/06 00:54:21;;;;;;;3.50;2.73;;;19.30;1.00;;;;;;2610860;54;20166;-59
2024/02/06 00:56:47;;;;;;;3.63;3.33;;;19.30;1.00;;;;;;2612899;47;20183;-59
2024/02/06 00:59:12;;;;;;;3.43;3.03;;;19.30;1.00;;;;;;2612694;54;20142;-59
2024/02/06 01:01:38;;;;;;;3.80;3.17;;;19.30;1.00;;;;;;2613596;47;20165;-61
2024/02/06 01:04:05;;;;;;;3.60;2.83;;;19.30;1.00;;;;;;2612634;47;20170;-62
2024/02/06 01:06:31;;;;;;;3.00;2.80;;;19.30;1.00;;;;;;2612232;54;20194;-61
2024/02/06 01:08:56;;;;;;;3.10;2.90;;;19.30;1.00;;;;;;2613090;39;20814;-60
2024/02/06 01:11:22;;;;;;;3.70;3.40;;;19.30;1.00;;;;;;2612268;54;20187;-61
2024/02/06 01:13:48;;;;;;;4.90;3.50;;;19.30;1.00;;;;;;2613598;54;20157;-61
2024/02/06 01:16:14;;;;;;;2.90;2.70;;;19.30;1.00;;;;;;2613041;54;20195;-61
2024/02/06 01:18:39;;;;;;;2.70;2.50;;;19.30;1.00;;;;;;2612388;54;20234;-62
2024/02/06 01:21:05;;;;;;;4.10;3.30;;;19.30;1.00;;;;;;2613020;54;20392;-62
2024/02/06 01:23:32;;;;;;;4.07;3.00;;;19.30;1.00;;;;;;2613214;54;20157;-62
2024/02/06 01:25:57;;;;;;;5.20;3.20;;;19.30;1.00;;;;;;2612215;54;20200;-63
2024/02/06 01:28:23;;;;;;;3.33;3.03;;;19.30;1.00;;;;;;2612661;54;20976;-63
2024/02/06 01:30:48;;;;;;;2.57;2.20;;;19.30;1.00;;;;;;2612866;54;20162;-62
2024/02/06 01:33:14;;;;;;;4.03;2.80;;;19.30;1.00;;;;;;2612362;54;20142;-62
2024/02/06 01:35:40;;;;;;;3.30;2.83;;;19.30;1.00;;;;;;2613138;54;20258;-62
2024/02/06 01:38:06;;;;;;;4.10;3.40;;;19.30;1.00;;;;;;2613329;54;20137;-63
2024/02/06 01:40:42;;;;;;;2.80;2.60;;;19.30;1.00;;;;;;2613095;54;20158;-63
2024/02/06 01:43:07;;;;;;;4.23;3.33;;;19.30;1.00;;;;;;2612396;54;20426;-63
2024/02/06 01:45:33;;;;;;;3.90;3.00;;;19.30;1.00;;;;;;2612920;47;20412;-62
2024/02/06 01:47:59;;;;;;;3.17;2.97;;;19.30;1.00;;;;;;2612271;54;20190;-63
2024/02/06 01:50:25;;;;;;;3.03;2.77;;;19.30;1.00;;;;;;2613008;54;20157;-61
2024/02/06 01:52:52;;;;;;;4.17;2.83;;;19.30;1.00;;;;;;2613167;54;20387;-59
2024/02/06 01:55:18;;;;;;;3.23;2.93;;;19.20;1.00;;;;;;2610632;54;20313;-59
2024/02/06 01:57:45;;;;;;;3.10;2.80;;;19.30;1.00;;;;;;2612998;54;20415;-59
2024/02/06 02:00:11;;;;;;;2.73;2.53;;;19.30;1.00;;;;;;2612570;54;20454;-58
2024/02/06 02:02:37;;;;;;;2.77;2.57;;;19.20;1.00;;;;;;2612862;54;20402;-59
2024/02/06 02:05:06;;;;;;;3.23;2.93;;;19.20;1.00;;;;;;2613015;54;20409;-59
2024/02/06 02:07:34;;;;;;;3.47;3.17;;;19.20;1.00;;;;;;2612666;39;21161;-59
2024/02/06 02:10:01;;;;;;;3.33;3.00;;;19.30;1.00;;;;;;2612681;54;20430;-58
2024/02/06 02:12:27;;;;;;;3.40;2.73;;;19.20;1.00;;;;;;2612101;54;20952;-62
2024/02/06 02:14:53;;;;;;;2.83;2.50;;;19.20;1.00;;;;;;2612679;54;20414;-61
2024/02/06 02:17:18;;;;;;;3.37;2.80;;;19.20;1.00;;;;;;2613116;39;20790;-63
2024/02/06 02:19:44;;;;;;;3.43;2.60;;;19.20;1.00;;;;;;2612556;54;20156;-62
2024/02/06 02:22:09;;;;;;;3.40;3.03;;;19.30;1.00;;;;;;2611879;54;20131;-62
2024/02/06 02:24:35;;;;;;;3.53;2.73;;;19.20;1.00;;;;;;2612219;54;20170;-62
2024/02/06 02:27:02;;;;;;;3.67;2.87;;;19.20;1.00;;;;;;2612171;54;20150;-62
2024/02/06 02:29:30;;;;;;;2.27;2.10;;;19.20;1.00;;;;;;2612232;54;20483;-62
2024/02/06 02:31:57;;;;;;;3.03;2.80;;;19.20;1.00;;;;;;2612033;54;20423;-66
2024/02/06 02:34:23;;;;;;;3.20;2.47;;;19.20;1.00;;;;;;2612500;47;20417;-65
2024/02/06 02:36:48;;;;;;;3.10;2.80;;;19.20;1.00;;;;;;2611617;54;20427;-64
2024/02/06 02:39:14;;;;;;;2.50;2.30;;;19.30;1.00;;;;;;2612112;47;20198;-63
2024/02/06 02:41:40;;;;;;;2.30;2.10;;;19.20;1.00;;;;;;2611708;54;20171;-64
2024/02/06 02:44:09;;;;;;;2.90;2.70;;;19.20;1.00;;;;;;2613698;54;20178;-65
2024/02/06 02:46:34;;;;;;;3.20;2.90;;;19.20;1.00;;;;;;2612049;54;20171;-65
2024/02/06 02:49:00;;;;;;;4.10;3.70;;;19.20;1.00;;;;;;2612111;47;21291;-65
2024/02/06 02:51:26;;;;;;;3.07;2.60;;;19.20;1.00;;;;;;2613140;54;20165;-64
2024/02/06 02:53:51;;;;;;;2.73;2.53;;;19.20;1.00;;;;;;2613414;54;20171;-64
2024/02/06 02:56:17;;;;;;;3.70;3.00;;;19.20;1.00;;;;;;2613523;54;20162;-65
2024/02/06 02:58:43;;;;;;;3.63;2.90;;;19.20;1.00;;;;;;2613440;54;20147;-65
2024/02/06 03:01:09;;;;;;;2.60;2.40;;;19.20;1.00;;;;;;2611670;54;20426;-65
2024/02/06 03:03:35;;;;;;;4.70;3.23;;;19.20;1.00;;;;;;2613036;47;20175;-60
2024/02/06 03:06:01;;;;;;;3.03;2.17;;;19.20;1.00;;;;;;2612480;54;20166;-60
2024/02/06 03:08:27;;;;;;;3.00;2.70;;;19.20;1.00;;;;;;2613424;47;20411;-59
2024/02/06 03:10:52;;;;;;;3.90;3.17;;;19.20;1.00;;;;;;2613289;47;20209;-59
2024/02/06 03:13:18;;;;;;;2.50;2.30;;;19.20;1.00;;;;;;2613108;54;20147;-60
2024/02/06 03:15:44;;;;;;;2.80;2.60;;;19.20;1.00;;;;;;2612360;54;20177;-58
2024/02/06 03:18:10;;;;;;;4.60;2.80;;;19.20;1.00;;;;;;2613149;39;20791;-59
2024/02/06 03:20:35;;;;;;;2.70;2.50;;;19.20;1.00;;;;;;2613146;54;20144;-59
2024/02/06 03:23:01;;;;;;;3.23;2.70;;;19.20;1.00;;;;;;2613670;51;20190;-59
2024/02/06 03:25:27;;;;;;;3.03;2.83;;;19.20;1.00;;;;;;2612611;54;20159;-59
2024/02/06 03:27:52;;;;;;;2.70;2.50;;;19.20;1.00;;;;;;2613348;54;20159;-58
2024/02/06 03:30:18;;;;;;;3.27;2.93;;;19.20;1.00;;;;;;2612816;54;20162;-58
2024/02/06 03:32:44;;;;;;;3.23;2.93;;;19.20;1.00;;;;;;2612663;47;20169;-60
2024/02/06 03:35:10;;;;;;;2.80;2.60;;;19.20;1.00;;;;;;2613470;47;20179;-58
2024/02/06 03:37:36;;;;;;;4.10;2.70;;;19.20;1.00;;;;;;2613009;54;20193;-59
2024/02/06 03:40:02;;;;;;;2.70;2.50;;;19.20;1.00;;;;;;2613458;54;20499;-59
2024/02/06 03:42:28;;;;;;;3.20;2.90;;;19.20;1.00;;;;;;2611562;54;20257;-64
2024/02/06 03:44:54;;;;;;;3.20;2.90;;;19.20;1.00;;;;;;2612730;51;20443;-65
2024/02/06 03:47:19;;;;;;;2.73;2.53;;;19.20;1.00;;;;;;2613610;39;20605;-65
2024/02/06 03:49:45;;;;;;;3.37;2.40;;;19.20;1.00;;;;;;2613096;47;20428;-65
2024/02/06 03:52:11;;;;;;;2.20;2.00;;;19.20;1.00;;;;;;2612521;54;20250;-65
2024/02/06 03:54:36;;;;;;;3.13;2.83;;;19.20;1.00;;;;;;2611621;54;20177;-65
2024/02/06 03:57:02;;;;;;;2.90;2.70;;;19.20;1.00;;;;;;2613153;54;20414;-65
2024/02/06 03:59:28;;;;;;;3.43;3.13;;;19.20;1.00;;;;;;2612734;54;20150;-65
2024/02/06 04:01:54;;;;;;;4.17;3.00;;;19.20;1.00;;;;;;2613214;47;20475;-65
2024/02/06 04:04:19;;;;;;;5.00;2.80;;;19.20;1.00;;;;;;2613029;54;20159;-64
2024/02/06 04:06:45;;;;;;;2.73;2.53;;;19.20;1.00;;;;;;2612400;54;20190;-65
2024/02/06 04:09:11;;;;;;;5.70;2.87;;;19.20;1.00;;;;;;2613354;47;20236;-64
2024/02/06 04:11:37;;;;;;;2.40;2.20;;;19.20;1.00;;;;;;2613039;39;20493;-60
2024/02/06 04:14:02;;;;;;;3.10;2.73;;;19.20;1.00;;;;;;2612662;54;20158;-60
2024/02/06 04:16:28;;;;;;;3.43;3.00;;;19.20;1.00;;;;;;2613124;39;20360;-60
2024/02/06 04:18:54;;;;;;;2.67;2.47;;;19.20;1.00;;;;;;2612005;54;20147;-60
2024/02/06 04:21:20;;;;;;;2.43;2.10;;;19.10;1.00;;;;;;2613142;54;20159;-60
2024/02/06 04:23:45;;;;;;;3.00;2.80;;;19.10;1.00;;;;;;2613336;47;21394;-60
2024/02/06 04:26:12;;;;;;;2.97;2.77;;;19.20;1.00;;;;;;2613118;54;20704;-59
2024/02/06 04:28:38;;;;;;;3.37;3.07;;;19.20;1.00;;;;;;2613212;39;20551;-61
2024/02/06 04:31:04;;;;;;;2.70;2.50;;;19.20;1.00;;;;;;2612687;54;20506;-59
2024/02/06 04:33:29;;;;;;;2.93;2.63;;;19.20;1.00;;;;;;2612664;54;20178;-61
2024/02/06 04:35:55;;;;;;;2.93;2.63;;;19.20;1.00;;;;;;2612421;47;20167;-61
2024/02/06 04:38:21;;;;;;;2.63;2.43;;;19.20;1.00;;;;;;2613092;54;20351;-61
2024/02/06 04:40:47;;;;;;;3.30;3.10;;;19.20;1.00;;;;;;2612843;54;20162;-61
2024/02/06 04:43:12;;;;;;;2.60;2.43;;;19.20;1.00;;;;;;2612812;54;20151;-61
2024/02/06 04:45:38;;;;;;;2.40;2.20;;;19.20;1.00;;;;;;2612789;47;20183;-60
2024/02/06 04:48:04;;;;;;;2.80;2.60;;;19.20;1.00;;;;;;2611541;54;20359;-60
2024/02/06 04:50:30;;;;;;;3.17;2.77;;;19.20;1.00;;;;;;2613129;47;20155;-60
2024/02/06 04:53:00;;;;;;;3.17;2.90;;;19.20;1.00;;;;;;2613110;46;21420;-64
2024/02/06 04:55:25;;;;;;;3.13;2.83;;;19.20;1.00;;;;;;2612039;54;20150;-65
2024/02/06 04:57:51;;;;;;;2.53;2.30;;;19.20;1.00;;;;;;2613342;47;20516;-65
2024/02/06 05:00:17;;;;;;;3.20;2.30;;;19.20;1.00;;;;;;2613045;54;21176;-65
2024/02/06 05:02:43;;;;;;;2.87;2.57;;;19.20;1.00;;;;;;2613634;54;20163;-65
2024/02/06 05:05:08;;;;;;;2.83;2.57;;;19.10;1.00;;;;;;2611748;54;20980;-64
2024/02/06 05:07:34;;;;;;;2.60;2.40;;;19.10;1.00;;;;;;2612663;54;20163;-65
2024/02/06 05:10:00;;;;;;;2.63;2.43;;;19.10;1.00;;;;;;2612862;54;20176;-65
2024/02/06 05:12:26;;;;;;;2.73;2.50;;;19.10;1.00;;;;;;2612647;54;20151;-65
2024/02/06 05:14:52;;;;;;;2.87;2.67;;;19.10;1.00;;;;;;2612778;54;20170;-65
2024/02/06 05:17:21;;;;;;;2.57;2.37;;;19.10;1.00;;;;;;2612874;54;20399;-65
2024/02/06 05:19:46;;;;;;;3.97;2.50;;;19.10;1.00;;;;;;2612736;47;20436;-65
2024/02/06 05:22:12;;;;;;;3.70;2.10;;;19.10;1.00;;;;;;2612684;54;20402;-59
2024/02/06 05:24:38;;;;;;;2.47;2.27;;;19.10;1.00;;;;;;2611971;54;20676;-59
2024/02/06 05:27:03;;;;;;;2.20;2.10;;;19.10;1.00;;;;;;2612650;54;20286;-59
2024/02/06 05:29:33;;;;;;;4.43;1.97;;;19.10;1.00;;;;;;2612396;54;20159;-59
2024/02/06 05:31:59;;;;;;;2.10;1.90;;;19.20;1.00;;;;;;2612972;54;20442;-58
2024/02/06 05:34:26;;;;;;;3.00;2.07;;;19.10;1.00;;;;;;2612720;54;20481;-58
2024/02/06 05:36:51;;;;;;;4.87;2.33;;;19.20;1.00;;;;;;2613230;39;20825;-58
2024/02/06 05:39:17;;;;;;;2.10;1.90;;;19.10;1.00;;;;;;2611798;54;20393;-58
2024/02/06 05:41:43;;;;;;;2.33;2.13;;;19.10;1.00;;;;;;2613424;39;20611;-64
2024/02/06 05:44:09;;;;;;;3.10;2.00;;;19.10;1.00;;;;;;2612633;54;20408;-64
2024/02/06 05:46:34;;;;;;;2.00;1.90;;;19.10;1.00;;;;;;2611689;54;20147;-64
2024/02/06 05:49:00;;;;;;;3.10;2.23;;;19.10;1.00;;;;;;2612789;54;20158;-65
2024/02/06 05:51:26;;;;;;;2.60;2.40;;;19.20;1.00;;;;;;2613092;47;20174;-65
2024/02/06 05:53:51;;;;;;;2.70;2.50;;;19.20;1.00;;;;;;2613300;54;20711;-65
2024/02/06 05:56:17;;;;;;;4.27;2.60;;;19.10;1.00;;;;;;2611893;47;20252;-65
2024/02/06 05:58:43;;;;;;;2.60;2.40;;;19.10;1.00;;;;;;2612799;54;20219;-65
2024/02/06 06:01:09;;;;;;;2.47;2.00;;;19.10;1.00;;;;;;2612077;54;20154;-65
2024/02/06 06:03:35;;;;;;;3.17;2.30;;;19.10;1.00;;;;;;2612780;54;20193;-60
2024/02/06 06:06:01;;;;;;;4.07;1.97;;;19.10;1.00;;;;;;2611828;54;20396;-60
2024/02/06 06:08:27;;;;;;;2.17;1.80;;;19.10;1.00;;;;;;2612167;54;20387;-59
2024/02/06 06:10:53;;;;;;;2.43;2.10;;;19.10;1.00;;;;;;2613071;39;20883;-60
2024/02/06 06:13:19;;;;;;;2.90;1.77;;;19.10;1.00;;;;;;2612716;54;20166;-60
2024/02/06 06:15:46;;;;;;;2.00;1.80;;;19.10;1.00;;;;;;2612362;47;20439;-60
2024/02/06 06:18:12;;;;;;;2.23;2.03;;;19.10;1.00;;;;;;2613746;54;20161;-61
2024/02/06 06:20:37;;;;;;;2.83;2.00;;;19.10;1.00;;;;;;2614038;54;20400;-59
2024/02/06 06:23:03;;;;;;;2.43;2.23;;;19.10;1.00;;;;;;2614130;54;20411;-60
2024/02/06 06:25:30;;;;;;;2.87;2.30;;;19.10;1.00;;;;;;2614076;54;20266;-60
2024/02/06 06:27:56;;;;;;;2.90;1.70;;;19.10;1.00;;;;;;2614131;47;20433;-60
2024/02/06 06:30:23;;;;;;;2.40;2.00;;;19.10;1.00;;;;;;2614328;54;20383;-60
2024/02/06 06:32:49;;;;;;;2.00;1.83;;;19.10;1.00;;;;;;2615220;54;20477;-61
2024/02/06 06:35:15;;;;;;;2.30;2.10;;;19.10;1.00;;;;;;2613326;54;20423;-60
2024/02/06 06:37:40;;;;;;;1.80;1.70;;;19.10;1.00;;;;;;2614442;54;21033;-60
2024/02/06 06:40:07;;;;;;;2.43;2.23;;;19.10;1.00;;;;;;2614823;39;20659;-60
2024/02/06 06:42:34;;;;;;;2.23;1.90;;;19.10;1.00;;;;;;2613713;51;20178;-60
2024/02/06 06:45:00;;;;;;;2.43;2.20;;;19.10;1.00;;;;;;2614606;54;20422;-61
2024/02/06 06:47:25;;;;;;;3.10;2.27;;;19.10;1.00;;;;;;2613169;54;20978;-60
2024/02/06 06:49:51;;;;;;;2.87;1.80;;;19.10;1.00;;;;;;2612987;54;20164;-60
2024/02/06 06:52:16;;;;;;;2.20;1.87;;;19.10;1.00;;;;;;2614375;46;20171;-64
2024/02/06 06:54:42;;;;;;;2.40;2.20;;;19.10;1.00;;;;;;2613689;54;20295;-66
2024/02/06 06:57:08;;;;;;;2.37;2.17;;;19.10;1.00;;;;;;2614168;54;20652;-66
2024/02/06 06:59:33;;;;;;;2.23;2.03;;;19.10;1.00;;;;;;2613263;46;20158;-66
2024/02/06 07:02:00;;;;;;;2.47;2.27;;;19.10;1.00;;;;;;2614048;54;20150;-66
2024/02/06 07:04:26;;;;;;;2.23;2.03;;;19.10;1.00;;;;;;2613713;54;20201;-66
2024/02/06 07:06:52;;;;;;;2.73;2.10;;;19.10;1.00;;;;;;2614237;54;20400;-66
2024/02/06 07:09:19;;;;;;;2.00;1.80;;;19.10;1.00;;;;;;2614131;54;20407;-67
2024/02/06 07:11:44;;;;;;;3.13;2.00;;;19.10;1.00;;;;;;2614180;54;20406;-73
2024/02/06 07:14:10;;;;;;;2.23;2.00;;;19.10;1.00;;;;;;2614909;54;20418;-73
2024/02/06 07:16:36;;;;;;;2.30;1.70;;;19.10;1.00;;;;;;2614128;54;20182;-73
2024/02/06 07:19:02;;;;;;;2.20;2.00;;;19.10;1.00;;;;;;2612963;54;20424;-73
2024/02/06 07:21:27;;;;;;;2.07;1.87;;;19.10;1.00;;;;;;2613912;54;20173;-72
2024/02/06 07:23:53;;;;;;;2.10;1.90;;;19.10;1.00;;;;;;2614963;54;20162;-73
2024/02/06 07:26:19;;;;;;;2.10;1.90;;;19.00;1.00;;;;;;2614370;54;20210;-73
2024/02/06 07:28:45;;;;;;;3.43;2.43;;;19.00;1.00;;;;;;2613823;54;20162;-72
2024/02/06 07:31:12;;;;;;;2.80;2.57;;;19.00;1.00;;;;;;2613507;54;20715;-73
2024/02/06 07:33:40;;;;;;;4.80;2.27;;;19.00;1.00;;;;;;2612599;54;20415;-74
2024/02/06 07:36:06;;;;;;;2.20;2.00;;;19.00;1.00;;;;;;2613678;47;20408;-73
2024/02/06 07:38:32;;;;;;;4.20;2.20;;;19.00;1.00;;;;;;2613656;47;20424;-73
2024/02/06 07:40:58;;;;;;;3.63;2.63;;;19.00;1.00;;;;;;2614023;54;20396;-73
2024/02/06 07:43:25;;;;;;;2.97;2.30;;;19.00;1.00;;;;;;2613374;54;20427;-63
2024/02/06 07:45:51;;;;;;;2.27;2.10;;;19.00;1.00;;;;;;2612986;47;21064;-62
2024/02/06 07:48:18;;;;;;;3.53;2.50;;;19.00;1.00;;;;;;2612016;47;20463;-62
2024/02/06 07:50:47;;;;;;;2.43;2.23;;;19.00;1.00;;;;;;2611561;54;20155;-62
2024/02/06 07:53:13;;;;;;;2.43;2.23;;;19.00;1.00;;;;;;2612150;51;20510;-62
2024/02/06 07:55:40;;;;;;;2.20;1.93;;;19.00;1.00;;;;;;2612866;54;20392;-63
2024/02/06 07:58:06;;;;;;;4.33;2.20;;;19.00;1.00;;;;;;2612861;54;20408;-62
2024/02/06 08:00:32;;;;;;;2.67;2.40;;;19.00;1.00;;;;;;2612480;54;20462;-62
2024/02/06 08:02:58;;;;;;;3.80;2.40;;;19.00;1.00;;;;;;2613017;47;20477;-66
2024/02/06 08:05:24;;;;;;;2.97;2.77;;;19.00;1.00;;;;;;2612277;54;20410;-66
2024/02/06 08:07:50;;;;;;;4.20;2.10;;;19.00;1.00;;;;;;2612226;54;20166;-66
2024/02/06 08:10:17;;;;;;;2.63;2.43;;;19.10;1.00;;;;;;2612953;54;20419;-66
2024/02/06 08:12:43;;;;;;;2.57;2.30;;;19.00;1.00;;;;;;2612987;47;20422;-63
2024/02/06 08:15:10;;;;;;;4.07;2.33;;;19.00;1.00;;;;;;2613336;54;20393;-64
2024/02/06 08:17:36;;;;;;;2.80;2.57;;;19.00;1.00;;;;;;2612988;54;20456;-65
2024/02/06 08:20:03;;;;;;;2.40;2.20;;;19.00;1.00;;;;;;2613181;54;20420;-65
2024/02/06 08:22:31;;;;;;;2.40;2.20;;;19.00;1.00;;;;;;2613322;54;20483;-73
2024/02/06 08:24:57;;;;;;;2.60;2.10;;;19.00;1.00;;;;;;2613263;54;20425;-73
2024/02/06 08:27:23;;;;;;;2.27;2.07;;;19.00;1.00;;;;;;2613229;54;20429;-72
2024/02/06 08:29:49;;;;;;;3.40;2.60;;;19.00;1.00;;;;;;2613310;54;20178;-72
2024/02/06 08:32:15;;;;;;;5.10;2.67;;;19.00;1.00;;;;;;2613764;54;20147;-72
2024/02/06 08:34:40;;;;;;;2.53;2.13;;;19.00;1.00;;;;;;2614101;54;20959;-73
2024/02/06 08:37:06;;;;;;;3.10;2.80;;;19.00;1.00;;;;;;2613756;54;20973;-72
2024/02/06 08:39:32;;;;;;;6.07;2.33;;;19.00;1.00;;;;;;2612930;47;20223;-73
2024/02/06 08:41:57;;;;;;;4.73;2.70;;;19.00;1.00;;;;;;2613720;54;20169;-72
2024/02/06 08:44:25;;;;;;;6.50;2.60;;;19.00;1.00;;;;;;2613743;54;20167;-72
2024/02/06 08:46:51;;;;;;;3.00;2.70;;;19.00;1.00;;;;;;2613800;39;20899;-72
2024/02/06 08:49:17;;;;;;;10.50;3.60;;;19.00;1.00;;;;;;2612965;54;20977;-73
2024/02/06 08:51:43;;;;;;;2.80;2.50;;;19.00;1.00;;;;;;2613440;54;20441;-61
2024/02/06 08:54:09;;;;;;;2.50;2.27;;;19.00;1.00;;;;;;2613136;54;20185;-60
2024/02/06 08:56:35;;;;;;;2.83;2.30;;;19.00;1.00;;;;;;2612639;54;20428;-60
2024/02/06 08:59:01;;;;;;;4.70;2.30;;;19.00;1.00;;;;;;2612251;54;20158;-59
2024/02/06 09:01:27;;;;;;;2.40;2.13;;;19.00;1.00;;;;;;2611219;47;20417;-61
2024/02/06 09:03:53;;;;;;;2.47;2.27;;;19.00;1.00;;;;;;2612221;54;20422;-60
2024/02/06 09:06:19;;;;;;;2.53;2.33;;;19.00;1.00;;;;;;2613057;54;20421;-60
2024/02/06 09:08:45;;;;;;;2.87;2.67;;;19.00;1.00;;;;;;2612207;54;20203;-61
2024/02/06 09:11:11;;;;;;;2.40;2.10;;;19.00;1.00;;;;;;2611620;54;20466;-60
2024/02/06 09:13:37;;;;;;;2.60;2.40;;;19.00;1.00;;;;;;2612186;54;20409;-60
2024/02/06 09:16:03;;;;;;;2.83;2.10;;;19.00;1.00;;;;;;2611787;54;20230;-60
2024/02/06 09:18:29;;;;;;;4.70;2.73;;;19.00;1.00;;;;;;2613164;54;20755;-60
2024/02/06 09:20:55;;;;;;;2.80;2.30;;;19.00;1.00;;;;;;2612600;47;20445;-61
2024/02/06 09:23:21;;;;;;;2.80;2.60;;;19.00;1.00;;;;;;2612456;54;20158;-61
2024/02/06 09:25:46;;;;;;;4.63;1.90;;;19.00;1.00;;;;;;2612791;54;20175;-60
2024/02/06 09:28:13;;;;;;;4.13;1.90;;;19.00;1.00;;;;;;2613181;54;20151;-60
2024/02/06 09:30:39;;;;;;;3.50;2.40;;;19.00;1.00;;;;;;2612252;54;20446;-60
2024/02/06 09:33:06;;;;;;;3.07;2.27;;;19.00;1.00;;;;;;2613690;54;20479;-73
2024/02/06 09:35:32;;;;;;;2.37;2.17;;;19.00;1.00;;;;;;2612604;54;20201;-72
2024/02/06 09:37:58;;;;;;;3.10;2.37;;;19.00;1.00;;;;;;2613183;54;20415;-73
2024/02/06 09:40:24;;;;;;;5.63;2.93;;;19.00;1.00;;;;;;2613316;54;20398;-73
2024/02/06 09:42:51;;;;;;;2.40;2.10;;;19.00;1.00;;;;;;2613070;47;20429;-73
2024/02/06 09:45:17;;;;;;;4.33;2.10;;;18.90;1.00;;;;;;2613173;54;20424;-73
2024/02/06 09:47:43;;;;;;;2.03;1.83;;;19.00;1.00;;;;;;2612955;54;20463;-72
2024/02/06 09:50:09;;;;;;;2.77;2.40;;;19.00;1.00;;;;;;2613610;54;20511;-72
2024/02/06 09:52:36;;;;;;;2.80;2.47;;;19.00;1.00;;;;;;2613214;54;20174;-73
2024/02/06 09:55:10;;;;;;;2.50;2.30;;;19.00;1.00;;;;;;2611622;54;20410;-72
2024/02/06 09:57:38;;;;;;;2.30;2.10;;;19.00;1.00;;;;;;2613308;54;20383;-72
2024/02/06 10:00:07;;;;;;;3.33;2.77;;;19.00;1.00;;;;;;2612860;54;20423;-73
2024/02/06 10:02:35;;;;;;;4.30;4.00;;;19.00;1.00;;;;;;2612551;54;20446;-59
2024/02/06 10:05:03;;;;;;;2.60;2.40;;;19.00;1.00;;;;;;2612836;54;20400;-59
2024/02/06 10:07:29;;;;;;;2.73;2.43;;;19.00;1.00;;;;;;2613106;54;20426;-59
2024/02/06 10:09:55;;;;;;;3.43;2.93;;;19.00;1.00;;;;;;2613257;54;20381;-58
2024/02/06 10:12:21;;;;;;;3.27;2.30;;;19.00;1.00;;;;;;2612405;54;20439;-59
2024/02/06 10:14:46;;;;;;;4.67;3.43;;;19.00;1.00;;;;;;2612881;54;20397;-59
2024/02/06 10:17:14;;;;;;;2.17;1.97;;;19.00;1.00;;;;;;2612507;54;20224;-58
2024/02/06 10:19:39;;;;;;;5.23;2.80;;;19.00;1.00;;;;;;2612721;54;20170;-58
2024/02/06 10:22:05;;;;;;;3.23;2.53;;;19.00;1.00;;;;;;2612917;39;20835;-58
2024/02/06 10:24:31;;;;;;;3.47;2.63;;;19.00;1.00;;;;;;2613273;54;20167;-60
2024/02/06 10:27:03;;;;;;;3.67;2.30;;;19.00;1.00;;;;;;2612920;47;20172;-60
2024/02/06 10:29:29;;;;;;;2.87;2.67;;;19.00;1.00;;;;;;2612121;54;20182;-58
2024/02/06 10:32:00;;;;;;;3.93;2.77;;;19.00;1.00;;;;;;2612898;54;20944;-59
2024/02/06 10:34:27;;;;;;;2.60;2.27;;;19.00;1.00;;;;;;2612504;54;20522;-59
2024/02/06 10:36:58;;;;;;;2.57;2.37;;;19.00;1.00;;;;;;2612759;54;20970;-59
2024/02/06 10:39:28;;;;;;;2.90;2.33;;;19.00;1.00;;;;;;2612622;54;20519;-58
2024/02/06 10:42:01;;;;;;;2.60;2.40;;;19.00;1.00;;;;;;2612701;54;20386;-65
2024/02/06 10:44:28;;;;;;;2.87;2.60;;;19.00;1.00;;;;;;2612768;47;20396;-65
2024/02/06 10:47:01;;;;;;;2.43;2.10;;;19.00;1.00;;;;;;2613028;54;20445;-66
2024/02/06 10:49:28;;;;;;;3.30;2.23;;;18.90;1.00;;;;;;2611623;54;20387;-65
2024/02/06 10:52:07;;;;;;;2.67;2.40;;;19.00;1.00;;;;;;2613027;54;20411;-63
2024/02/06 10:54:40;;;;;;;2.83;2.63;;;18.90;1.00;;;;;;2612663;47;20407;-64
2024/02/06 10:57:07;;;;;;;3.50;2.50;;;19.00;1.00;;;;;;2612887;54;20482;-65
2024/02/06 10:59:48;;;;;;;2.70;2.50;;;18.90;1.00;;;;;;2612732;54;20438;-63
2024/02/06 11:02:25;;;;;;;3.43;2.80;;;18.90;1.00;;;;;;2612138;54;20383;-64
2024/02/06 11:05:03;;;;;;;4.23;3.03;;;18.90;1.00;;;;;;2612075;54;20423;-65
2024/02/06 11:07:36;;;;;;;2.37;2.03;;;18.90;1.00;;;;;;2613775;54;21238;-64
2024/02/06 11:10:04;;;;;;;2.80;2.30;;;19.00;1.00;;;;;;2613087;54;20956;-65
2024/02/06 11:12:31;;;;;;;3.80;3.07;;;18.90;1.00;;;;;;2612954;39;20814;-59
2024/02/06 11:14:59;;;;;;;6.70;2.47;;;18.90;1.00;;;;;;2614431;39;20772;-59
2024/02/06 11:17:27;;;;;;;2.53;2.33;;;18.90;1.00;;;;;;2613309;54;20775;-59
2024/02/06 11:19:58;;;;;;;2.37;2.17;;;18.90;1.00;;;;;;2613804;54;20420;-59
2024/02/06 11:22:32;;;;;;;2.57;2.33;;;18.90;1.00;;;;;;2613547;54;20438;-59
2024/02/06 11:24:58;;;;;;;1.83;1.67;;;18.90;1.00;;;;;;2612217;47;20435;-59
2024/02/06 11:27:25;;;;;;;3.73;2.80;;;19.00;1.00;;;;;;2613937;39;20853;-60
2024/02/06 11:29:52;;;;;;;3.63;2.90;;;18.90;1.00;;;;;;2613135;39;20897;-58
2024/02/06 11:32:18;;;;;;;2.77;2.57;;;18.90;1.00;;;;;;2613748;54;20441;-63
2024/02/06 11:34:52;;;;;;;4.23;2.83;;;18.90;1.00;;;;;;2613450;54;20413;-62
2024/02/06 11:37:28;;;;;;;3.57;2.80;;;18.90;1.00;;;;;;2614025;39;20830;-62
2024/02/06 11:40:11;;;;;;;3.70;2.63;;;18.90;1.00;;;;;;2613787;54;20428;-62
2024/02/06 11:42:38;;;;;;;3.30;2.50;;;18.90;1.00;;;;;;2612990;54;20435;-63
2024/02/06 11:45:19;;;;;;;2.90;2.60;;;18.90;1.00;;;;;;2612902;54;20488;-63
2024/02/06 11:47:57;;;;;;;3.43;2.30;;;18.90;1.00;;;;;;2613187;54;20534;-63
2024/02/06 11:50:40;;;;;;;2.47;2.27;;;18.90;1.00;;;;;;2614412;31;20836;-63
2024/02/06 11:53:13;;;;;;;2.70;2.50;;;18.90;1.00;;;;;;2613902;39;20772;-63
2024/02/06 11:55:39;;;;;;;4.17;2.50;;;18.90;1.00;;;;;;2613292;54;20418;-62
2024/02/06 11:58:05;;;;;;;4.23;3.07;;;18.90;1.00;;;;;;2613531;54;20483;-62
2024/02/06 12:00:31;;;;;;;2.83;2.57;;;18.90;1.00;;;;;;2613503;31;20891;-62
2024/02/06 12:03:00;;;;;;;2.90;2.70;;;18.90;1.00;;;;;;2613501;54;20459;-58
2024/02/06 12:05:26;;;;;;;3.63;2.47;;;18.90;1.00;;;;;;2613013;54;20414;-59
2024/02/06 12:07:57;;;;;;;4.83;3.27;;;18.90;1.00;;;;;;2613006;47;20546;-58
2024/02/06 12:10:30;;;;;;;2.50;2.30;;;18.90;1.00;;;;;;2612966;54;20400;-58
2024/02/06 12:13:06;;;;;;;2.37;2.17;;;18.90;1.00;;;;;;2612838;54;20415;-59
2024/02/06 12:15:33;;;;;;;3.60;2.83;;;19.00;1.00;;;;;;2612762;54;20398;-59
2024/02/06 12:18:00;;;;;;;3.07;2.77;;;18.90;1.00;;;;;;2613842;39;20881;-59
2024/02/06 12:20:26;;;;;;;2.60;2.40;;;18.90;1.00;;;;;;2613503;54;21113;-60
2024/02/06 12:23:07;;;;;;;3.20;2.20;;;18.90;1.00;;;;;;2613335;54;20431;-58
2024/02/06 12:25:34;;;;;;;3.30;2.60;;;18.90;1.00;;;;;;2613920;39;20988;-59
2024/02/06 12:28:01;;;;;;;3.00;2.60;;;18.90;1.00;;;;;;2613669;54;20455;-58
2024/02/06 12:30:28;;;;;;;2.67;2.47;;;18.90;1.00;;;;;;2613315;54;20416;-59
2024/02/06 12:32:59;;;;;;;2.73;2.53;;;18.90;1.00;;;;;;2612815;47;20454;-65
2024/02/06 12:35:26;;;;;;;2.50;2.30;;;18.90;1.00;;;;;;2611881;47;20459;-66
2024/02/06 12:37:56;;;;;;;2.33;1.87;;;18.90;1.00;;;;;;2612041;54;20414;-64
2024/02/06 12:40:22;;;;;;;3.03;2.73;;;18.90;1.00;;;;;;2613173;54;20451;-64
2024/02/06 12:42:49;;;;;;;2.60;2.20;;;18.90;1.00;;;;;;2612939;54;20413;-63
2024/02/06 12:45:19;;;;;;;2.73;2.50;;;18.90;1.00;;;;;;2612891;54;20486;-65
2024/02/06 12:47:46;;;;;;;5.80;2.93;;;18.90;1.00;;;;;;2612605;47;20461;-66
2024/02/06 12:50:12;;;;;;;2.80;2.40;;;18.90;1.00;;;;;;2612476;54;20404;-66
2024/02/06 12:52:41;;;;;;;2.53;2.30;;;18.90;1.00;;;;;;2612981;54;20504;-60
2024/02/06 12:55:08;;;;;;;5.00;2.50;;;18.90;1.00;;;;;;2612366;54;20169;-60